createdAt,value
2023-04-29T00:00:26.489Z,93008.63
2023-04-29T00:01:59.423Z,93007.84
2023-04-29T00:03:32.829Z,93002.00
2023-04-29T00:05:05.668Z,93005.84
2023-04-29T00:06:37.462Z,93005.38
2023-04-29T00:08:09.151Z,93011.03
2023-04-29T00:09:41.019Z,93008.28
2023-04-29T00:11:12.594Z,92999.19
2023-04-29T00:12:44.720Z,93000.25
2023-04-29T00:14:16.788Z,93006.13
2023-04-29T00:15:48.426Z,92997.03
2023-04-29T00:17:20.443Z,93005.00
2023-04-29T00:18:52.131Z,93000.44
2023-04-29T00:20:23.689Z,92998.53
2023-04-29T00:21:55.422Z,92999.66
2023-04-29T00:23:27.289Z,93001.28
2023-04-29T00:24:58.837Z,93003.69
2023-04-29T00:26:30.566Z,93006.63
2023-04-29T00:28:02.420Z,93001.81
2023-04-29T00:29:34.154Z,93006.13
2023-04-29T00:31:05.710Z,93003.00
2023-04-29T00:32:37.661Z,93010.81
2023-04-29T00:34:09.173Z,93011.75
2023-04-29T00:35:40.822Z,93012.94
2023-04-29T00:37:12.665Z,93011.16
2023-04-29T00:38:44.217Z,93005.59
2023-04-29T00:40:16.492Z,93015.31
2023-04-29T00:41:48.015Z,93015.91
2023-04-29T00:43:19.642Z,93019.19
2023-04-29T00:44:51.189Z,93010.13
2023-04-29T00:46:22.737Z,93013.34
2023-04-29T00:47:54.344Z,93016.00
2023-04-29T00:49:26.243Z,93014.41
2023-04-29T00:50:57.867Z,93013.84
2023-04-29T00:52:30.033Z,93013.59
2023-04-29T00:54:01.680Z,93013.34
2023-04-29T00:55:33.568Z,93015.47
2023-04-29T00:57:06.528Z,93008.28
2023-04-29T00:58:39.419Z,93004.88
2023-04-29T01:00:11.236Z,93007.81
2023-04-29T01:01:42.935Z,93007.28
2023-04-29T01:03:14.742Z,93003.03
2023-04-29T01:04:46.620Z,93003.56
2023-04-29T01:06:25.220Z,93000.34
2023-04-29T01:07:59.472Z,93005.94
2023-04-29T01:09:40.278Z,93001.06
2023-04-29T01:11:12.186Z,93008.00
2023-04-29T01:12:49.556Z,93003.66
2023-04-29T01:14:21.461Z,92997.22
2023-04-29T01:15:56.070Z,92996.69
2023-04-29T01:17:27.991Z,93001.00
2023-04-29T01:18:59.569Z,92994.91
2023-04-29T01:20:31.750Z,92999.47
2023-04-29T01:22:03.448Z,92995.72
2023-04-29T01:23:35.095Z,92996.50
2023-04-29T01:25:07.303Z,92993.28
2023-04-29T01:26:39.163Z,92992.50
2023-04-29T01:28:29.688Z,92983.16
2023-04-29T01:30:02.771Z,92988.81
2023-04-29T01:31:35.274Z,92997.41
2023-04-29T01:33:12.637Z,92989.22
2023-04-29T01:34:47.116Z,92986.88
2023-04-29T01:36:29.298Z,92982.63
2023-04-29T01:38:06.044Z,92984.84
2023-04-29T01:39:49.830Z,92974.50
2023-04-29T01:41:41.948Z,92976.97
2023-04-29T01:43:14.297Z,92963.94
2023-04-29T01:44:45.929Z,92970.06
2023-04-29T01:46:18.667Z,92962.56
2023-04-29T01:47:51.276Z,92959.38
2023-04-29T01:49:25.937Z,92959.34
2023-04-29T01:50:57.545Z,92960.06
2023-04-29T01:52:29.220Z,92965.09
2023-04-29T01:54:00.716Z,92957.06
2023-04-29T01:55:32.239Z,92961.28
2023-04-29T01:57:04.722Z,92958.34
2023-04-29T01:58:36.560Z,92964.00
2023-04-29T02:00:09.323Z,92966.13
2023-04-29T02:01:41.067Z,92970.16
2023-04-29T02:03:12.981Z,92956.81
2023-04-29T02:04:44.843Z,92963.50
2023-04-29T02:06:16.370Z,92962.41
2023-04-29T02:07:48.201Z,92961.34
2023-04-29T02:09:19.931Z,92964.56
2023-04-29T02:11:01.053Z,92959.81
2023-04-29T02:12:32.713Z,92962.50
2023-04-29T02:14:04.329Z,92957.19
2023-04-29T02:15:35.918Z,92961.50
2023-04-29T02:17:07.799Z,92955.91
2023-04-29T02:18:40.483Z,92952.97
2023-04-29T02:20:12.268Z,92958.56
2023-04-29T02:21:44.165Z,92952.97
2023-04-29T02:23:15.914Z,92956.97
2023-04-29T02:24:47.853Z,92959.38
2023-04-29T02:26:20.231Z,92961.28
2023-04-29T02:27:52.211Z,92964.50
2023-04-29T02:29:24.019Z,92969.31
2023-04-29T02:30:55.641Z,92964.78
2023-04-29T02:32:27.414Z,92969.31
2023-04-29T02:34:00.392Z,92974.16
2023-04-29T02:35:32.061Z,92970.16
2023-04-29T02:37:04.962Z,92965.88
2023-04-29T02:38:36.542Z,92965.88
2023-04-29T02:40:08.789Z,92967.75
2023-04-29T02:41:40.596Z,92966.69
2023-04-29T02:43:12.772Z,92960.34
2023-04-29T02:44:44.413Z,92963.00
2023-04-29T02:46:16.833Z,92960.59
2023-04-29T02:47:48.570Z,92952.34
2023-04-29T02:49:20.260Z,92959.78
2023-04-29T02:50:51.800Z,92959.53
2023-04-29T02:52:23.393Z,92960.59
2023-04-29T02:53:55.481Z,92960.59
2023-04-29T02:55:27.402Z,92956.06
2023-04-29T02:56:59.028Z,92954.22
2023-04-29T02:58:30.624Z,92959.81
2023-04-29T03:00:02.328Z,92970.47
2023-04-29T03:01:34.163Z,92960.34
2023-04-29T03:03:06.042Z,92970.97
2023-04-29T03:04:37.939Z,92978.16
2023-04-29T03:06:09.604Z,92978.69
2023-04-29T03:07:41.217Z,92982.75
2023-04-29T03:09:14.364Z,92980.09
2023-04-29T03:10:46.734Z,92994.25
2023-04-29T03:12:18.422Z,92993.19
2023-04-29T03:13:50.000Z,92993.44
2023-04-29T03:15:21.677Z,92982.00
2023-04-29T03:16:53.451Z,92987.84
2023-04-29T03:18:25.065Z,92985.72
2023-04-29T03:19:57.203Z,92990.81
2023-04-29T03:21:30.105Z,92986.03
2023-04-29T03:23:02.858Z,92982.56
2023-04-29T03:24:34.514Z,92995.91
2023-04-29T03:26:06.200Z,92994.28
2023-04-29T03:27:38.638Z,92998.56
2023-04-29T03:29:10.380Z,93012.41
2023-04-29T03:30:42.996Z,93014.53
2023-04-29T03:32:14.485Z,93022.31
2023-04-29T03:33:46.180Z,93027.09
2023-04-29T03:35:18.069Z,93032.19
2023-04-29T03:36:49.665Z,93034.84
2023-04-29T03:38:21.310Z,93026.31
2023-04-29T03:39:53.089Z,93023.13
2023-04-29T03:41:25.211Z,93014.91
2023-04-29T03:42:57.157Z,93013.28
2023-04-29T03:44:29.449Z,93017.81
2023-04-29T03:46:01.243Z,93019.94
2023-04-29T03:47:33.629Z,93021.00
2023-04-29T03:49:05.304Z,93021.00
2023-04-29T03:50:37.165Z,93019.41
2023-04-29T03:52:09.505Z,93025.81
2023-04-29T03:53:46.403Z,93028.19
2023-04-29T03:55:18.412Z,93026.59
2023-04-29T03:56:49.932Z,93031.41
2023-04-29T03:58:29.254Z,93027.66
2023-04-29T04:00:01.323Z,93024.19
2023-04-29T04:01:33.644Z,93035.13
2023-04-29T04:03:06.087Z,93031.38
2023-04-29T04:04:38.313Z,93030.84
2023-04-29T04:06:10.285Z,93035.13
2023-04-29T04:07:42.137Z,93039.13
2023-04-29T04:09:14.133Z,93042.03
2023-04-29T04:10:46.679Z,93036.44
2023-04-29T04:12:18.301Z,93038.56
2023-04-29T04:13:50.299Z,93036.44
2023-04-29T04:15:23.771Z,93037.50
2023-04-29T04:16:55.427Z,93035.91
2023-04-29T04:18:27.134Z,93045.22
2023-04-29T04:19:59.569Z,93041.19
2023-04-29T04:21:32.549Z,93046.53
2023-04-29T04:23:04.408Z,93043.03
2023-04-29T04:24:36.123Z,93037.44
2023-04-29T04:26:07.814Z,93040.09
2023-04-29T04:27:39.546Z,93044.09
2023-04-29T04:29:11.184Z,93037.44
2023-04-29T04:30:43.423Z,93040.38
2023-04-29T04:32:15.165Z,93029.97
2023-04-29T04:33:47.290Z,93021.41
2023-04-29T04:35:18.919Z,93027.78
2023-04-29T04:36:50.573Z,93015.53
2023-04-29T04:38:25.505Z,93020.03
2023-04-29T04:39:57.539Z,93011.97
2023-04-29T04:41:32.041Z,93008.78
2023-04-29T04:43:03.740Z,93007.97
2023-04-29T04:44:35.399Z,93005.56
2023-04-29T04:46:13.638Z,93005.84
2023-04-29T04:47:45.624Z,93006.09
2023-04-29T04:49:18.248Z,93006.84
2023-04-29T04:50:50.087Z,93016.91
2023-04-29T04:52:22.579Z,93019.25
2023-04-29T04:53:54.646Z,93011.19
2023-04-29T04:55:26.528Z,93010.91
2023-04-29T04:56:58.066Z,93010.03
2023-04-29T04:58:31.548Z,93013.50
2023-04-29T05:00:04.506Z,93009.56
2023-04-29T05:01:36.240Z,93005.31
2023-04-29T05:03:07.849Z,93006.09
2023-04-29T05:04:39.466Z,93006.31
2023-04-29T05:06:11.279Z,93014.06
2023-04-29T05:07:44.007Z,93018.56
2023-04-29T05:09:15.831Z,93015.09
2023-04-29T05:10:47.403Z,93009.69
2023-04-29T05:12:19.067Z,93016.31
2023-04-29T05:13:50.699Z,93011.75
2023-04-29T05:15:22.319Z,93018.13
2023-04-29T05:16:53.895Z,93024.22
2023-04-29T05:18:27.474Z,93024.41
2023-04-29T05:20:12.783Z,93020.91
2023-04-29T05:21:45.902Z,93025.91
2023-04-29T05:23:18.240Z,93019.22
2023-04-29T05:24:51.848Z,93019.75
2023-04-29T05:26:24.058Z,93014.50
2023-04-29T05:27:57.152Z,93007.25
2023-04-29T05:29:29.320Z,93006.94
2023-04-29T05:31:01.097Z,93007.09
2023-04-29T05:32:33.939Z,93001.69
2023-04-29T05:34:06.611Z,93011.69
2023-04-29T05:35:38.650Z,93015.31
2023-04-29T05:37:13.718Z,93016.00
2023-04-29T05:38:46.209Z,93018.56
2023-04-29T05:40:24.907Z,93026.28
2023-04-29T05:41:59.438Z,93013.63
2023-04-29T05:43:36.901Z,93019.44
2023-04-29T05:45:09.605Z,93018.00
2023-04-29T05:46:42.161Z,93015.25
2023-04-29T05:48:14.432Z,93007.28
2023-04-29T05:49:47.426Z,93009.41
2023-04-29T05:51:19.496Z,93009.97
2023-04-29T05:52:52.767Z,93008.81
2023-04-29T05:54:24.900Z,93006.00
2023-04-29T05:55:56.937Z,92998.63
2023-04-29T05:57:28.738Z,93000.16
2023-04-29T05:59:00.589Z,93011.25
2023-04-29T06:00:32.920Z,93012.81
2023-04-29T06:02:04.620Z,93006.19
2023-04-29T06:03:36.616Z,93011.72
2023-04-29T06:05:09.094Z,93005.16
2023-04-29T06:06:41.057Z,93013.03
2023-04-29T06:08:13.190Z,93010.81
2023-04-29T06:09:44.746Z,93014.41
2023-04-29T06:11:17.317Z,93007.41
2023-04-29T06:12:52.135Z,93008.63
2023-04-29T06:14:24.766Z,93010.56
2023-04-29T06:15:56.580Z,93006.53
2023-04-29T06:17:30.107Z,93005.50
2023-04-29T06:19:02.381Z,92999.44
2023-04-29T06:20:36.846Z,92994.81
2023-04-29T06:22:09.244Z,92995.50
2023-04-29T06:23:40.886Z,92985.63
2023-04-29T06:25:12.393Z,92993.38
2023-04-29T06:26:53.320Z,92991.69
2023-04-29T06:28:25.354Z,92994.38
2023-04-29T06:29:56.995Z,92987.69
2023-04-29T06:31:28.915Z,92991.34
2023-04-29T06:33:00.580Z,92996.09
2023-04-29T06:34:32.229Z,92989.91
2023-04-29T06:36:05.161Z,92986.75
2023-04-29T06:37:38.195Z,92982.19
2023-04-29T06:39:09.914Z,92984.69
2023-04-29T06:40:41.494Z,92986.19
2023-04-29T06:42:13.642Z,92991.13
2023-04-29T06:43:47.339Z,92983.78
2023-04-29T06:45:20.389Z,92981.16
2023-04-29T06:46:51.979Z,92986.19
2023-04-29T06:48:23.780Z,92980.03
2023-04-29T06:49:55.568Z,92980.44
2023-04-29T06:51:28.128Z,92978.84
2023-04-29T06:52:59.934Z,92981.91
2023-04-29T06:54:32.058Z,92988.56
2023-04-29T06:56:03.604Z,92983.44
2023-04-29T06:57:35.186Z,92985.22
2023-04-29T06:59:07.157Z,92985.25
2023-04-29T07:00:38.729Z,92984.75
2023-04-29T07:02:10.287Z,92977.13
2023-04-29T07:03:42.525Z,92983.28
2023-04-29T07:05:14.222Z,92974.84
2023-04-29T07:06:47.382Z,92982.75
2023-04-29T07:08:19.337Z,92981.16
2023-04-29T07:09:52.862Z,92977.31
2023-04-29T07:11:27.531Z,92976.16
2023-04-29T07:13:00.426Z,92977.84
2023-04-29T07:14:32.104Z,92979.19
2023-04-29T07:16:03.661Z,92974.97
2023-04-29T07:17:35.277Z,92978.56
2023-04-29T07:19:06.921Z,92987.53
2023-04-29T07:20:38.571Z,92979.09
2023-04-29T07:22:10.082Z,92977.97
2023-04-29T07:23:41.610Z,92981.59
2023-04-29T07:25:13.230Z,92977.06
2023-04-29T07:26:47.719Z,92969.72
2023-04-29T07:28:19.235Z,92957.06
2023-04-29T07:29:51.029Z,92962.53
2023-04-29T07:31:22.799Z,92971.25
2023-04-29T07:32:54.638Z,92972.38
2023-04-29T07:34:26.322Z,92963.66
2023-04-29T07:35:58.030Z,92965.38
2023-04-29T07:37:30.130Z,92967.59
2023-04-29T07:39:01.653Z,92967.59
2023-04-29T07:40:33.322Z,92963.22
2023-04-29T07:42:05.237Z,92963.72
2023-04-29T07:43:37.086Z,92971.38
2023-04-29T07:45:08.883Z,92968.34
2023-04-29T07:46:46.686Z,92977.97
2023-04-29T07:48:18.305Z,92967.13
2023-04-29T07:49:50.179Z,92967.31
2023-04-29T07:51:22.112Z,92966.31
2023-04-29T07:52:55.302Z,92957.25
2023-04-29T07:54:27.899Z,92962.34
2023-04-29T07:55:59.553Z,92969.00
2023-04-29T07:57:31.121Z,92962.94
2023-04-29T07:59:02.999Z,92960.44
2023-04-29T08:00:34.530Z,92961.16
2023-04-29T08:02:06.111Z,92962.19
2023-04-29T08:03:40.886Z,92960.50
2023-04-29T08:05:13.499Z,92961.72
2023-04-29T08:06:45.412Z,92958.16
2023-04-29T08:08:16.943Z,92949.78
2023-04-29T08:09:48.531Z,92960.28
2023-04-29T08:11:20.676Z,92949.28
2023-04-29T08:12:52.171Z,92957.19
2023-04-29T08:14:24.143Z,92948.78
2023-04-29T08:15:55.925Z,92954.31
2023-04-29T08:17:27.577Z,92954.16
2023-04-29T08:18:59.118Z,92961.81
2023-04-29T08:20:31.484Z,92953.19
2023-04-29T08:22:04.550Z,92952.97
2023-04-29T08:23:36.598Z,92953.66
2023-04-29T08:25:08.647Z,92950.44
2023-04-29T08:26:41.098Z,92945.63
2023-04-29T08:28:13.254Z,92951.44
2023-04-29T08:29:45.001Z,92950.19
2023-04-29T08:31:17.341Z,92947.16
2023-04-29T08:32:49.090Z,92948.56
2023-04-29T08:34:20.714Z,92941.81
2023-04-29T08:35:57.820Z,92948.94
2023-04-29T08:37:29.861Z,92953.59
2023-04-29T08:39:01.864Z,92949.28
2023-04-29T08:40:36.965Z,92947.00
2023-04-29T08:42:08.912Z,92954.72
2023-04-29T08:43:43.570Z,92950.94
2023-04-29T08:45:15.914Z,92949.16
2023-04-29T08:46:47.559Z,92952.53
2023-04-29T08:48:19.399Z,92940.84
2023-04-29T08:49:51.141Z,92934.53
2023-04-29T08:51:22.724Z,92936.44
2023-04-29T08:52:54.467Z,92931.47
2023-04-29T08:54:26.430Z,92932.16
2023-04-29T08:55:58.768Z,92927.84
2023-04-29T08:57:30.815Z,92928.19
2023-04-29T08:59:02.453Z,92930.13
2023-04-29T09:00:34.477Z,92930.56
2023-04-29T09:02:09.233Z,92936.09
2023-04-29T09:03:50.129Z,92927.28
2023-04-29T09:05:22.497Z,92929.47
2023-04-29T09:06:55.807Z,92933.31
2023-04-29T09:08:27.515Z,92926.47
2023-04-29T09:09:59.469Z,92931.03
2023-04-29T09:11:31.018Z,92927.84
2023-04-29T09:13:02.606Z,92933.84
2023-04-29T09:14:34.907Z,92928.47
2023-04-29T09:16:12.223Z,92925.84
2023-04-29T09:17:44.784Z,92933.31
2023-04-29T09:19:35.180Z,92922.63
2023-04-29T09:21:22.312Z,92932.22
2023-04-29T09:22:55.074Z,92926.88
2023-04-29T09:24:27.705Z,92926.78
2023-04-29T09:25:59.519Z,92923.53
2023-04-29T09:27:31.787Z,92921.19
2023-04-29T09:29:07.863Z,92922.75
2023-04-29T09:30:45.715Z,92920.19
2023-04-29T09:32:23.428Z,92928.03
2023-04-29T09:33:55.930Z,92920.13
2023-04-29T09:35:28.004Z,92921.69
2023-04-29T09:36:59.611Z,92911.00
2023-04-29T09:38:31.177Z,92911.25
2023-04-29T09:40:03.330Z,92915.25
2023-04-29T09:41:34.832Z,92914.66
2023-04-29T09:43:12.914Z,92910.66
2023-04-29T09:44:45.546Z,92905.28
2023-04-29T09:46:17.225Z,92908.53
2023-04-29T09:47:48.870Z,92909.44
2023-04-29T09:49:27.111Z,92903.44
2023-04-29T09:51:03.493Z,92891.88
2023-04-29T09:52:42.828Z,92890.59
2023-04-29T09:54:20.639Z,92892.47
2023-04-29T09:55:58.322Z,92890.75
2023-04-29T09:57:40.664Z,92885.94
2023-04-29T09:59:13.719Z,92884.63
2023-04-29T10:00:45.714Z,92883.69
2023-04-29T10:02:21.082Z,92875.59
2023-04-29T10:03:53.066Z,92878.66
2023-04-29T10:05:25.870Z,92871.31
2023-04-29T10:06:57.595Z,92870.28
2023-04-29T10:08:29.420Z,92872.75
2023-04-29T10:10:00.942Z,92868.53
2023-04-29T10:11:32.821Z,92868.63
2023-04-29T10:13:04.422Z,92859.50
2023-04-29T10:14:39.298Z,92858.00
2023-04-29T10:16:20.040Z,92853.94
2023-04-29T10:18:12.649Z,92855.53
2023-04-29T10:19:56.171Z,92855.22
2023-04-29T10:21:29.055Z,92849.84
2023-04-29T10:23:01.201Z,92850.91
2023-04-29T10:24:32.817Z,92849.28
2023-04-29T10:26:04.738Z,92847.28
2023-04-29T10:27:36.732Z,92851.88
2023-04-29T10:29:08.567Z,92853.75
2023-04-29T10:30:40.470Z,92855.59
2023-04-29T10:32:12.796Z,92865.03
2023-04-29T10:33:46.098Z,92861.31
2023-04-29T10:35:20.236Z,92863.03
2023-04-29T10:36:51.956Z,92860.31
2023-04-29T10:38:24.723Z,92860.19
2023-04-29T10:40:12.555Z,92865.47
2023-04-29T10:41:47.493Z,92862.25
2023-04-29T10:43:25.408Z,92862.50
2023-04-29T10:45:31.814Z,92866.13
2023-04-29T10:47:18.748Z,92856.84
2023-04-29T10:48:51.404Z,92865.50
2023-04-29T10:50:23.263Z,92862.50
2023-04-29T10:51:58.285Z,92858.03
2023-04-29T10:53:29.930Z,92866.00
2023-04-29T10:55:04.380Z,92865.03
2023-04-29T10:56:37.719Z,92861.53
2023-04-29T10:58:27.473Z,92859.25
2023-04-29T10:59:59.741Z,92865.03
2023-04-29T11:01:40.971Z,92863.69
2023-04-29T11:03:12.657Z,92861.69
2023-04-29T11:05:02.856Z,92861.59
2023-04-29T11:06:38.381Z,92862.47
2023-04-29T11:08:13.284Z,92856.34
2023-04-29T11:09:48.951Z,92852.94
2023-04-29T11:11:39.203Z,92863.00
2023-04-29T11:15:44.581Z,92855.38
2023-04-29T11:17:16.845Z,92860.47
2023-04-29T11:19:07.720Z,92850.38
2023-04-29T11:20:57.867Z,92853.44
2023-04-29T11:22:34.039Z,92858.09
2023-04-29T11:24:06.728Z,92859.31
2023-04-29T11:25:49.511Z,92856.53
2023-04-29T11:27:28.413Z,92858.81
2023-04-29T11:32:52.147Z,92862.47
2023-04-29T11:34:42.723Z,92855.03
2023-04-29T11:36:14.584Z,92849.25
2023-04-29T11:37:46.442Z,92844.34
2023-04-29T11:39:18.111Z,92856.78
2023-04-29T11:40:50.764Z,92845.66
2023-04-29T11:42:22.503Z,92858.97
2023-04-29T11:43:58.801Z,92850.16
2023-04-29T11:45:30.557Z,92847.88
2023-04-29T11:47:02.978Z,92853.66
2023-04-29T11:48:34.562Z,92848.66
2023-04-29T11:50:11.275Z,92855.69
2023-04-29T11:55:33.587Z,92851.91
2023-04-29T11:57:05.460Z,92844.25
2023-04-29T11:58:37.390Z,92854.56
2023-04-29T12:00:10.821Z,92849.88
2023-04-29T12:01:42.544Z,92845.47
2023-04-29T12:03:15.325Z,92845.38
2023-04-29T12:04:47.480Z,92841.00
2023-04-29T12:06:19.340Z,92844.50
2023-04-29T12:07:51.822Z,92844.16
2023-04-29T12:09:23.774Z,92839.19
2023-04-29T12:10:55.857Z,92848.47
2023-04-29T12:12:35.039Z,92851.53
2023-04-29T12:14:07.102Z,92846.88
2023-04-29T12:15:40.361Z,92852.31
2023-04-29T12:17:12.219Z,92843.19
2023-04-29T12:18:43.827Z,92848.19
2023-04-29T12:20:15.543Z,92844.94
2023-04-29T12:21:50.424Z,92837.06
2023-04-29T12:23:28.695Z,92838.78
2023-04-29T12:25:00.400Z,92839.91
2023-04-29T12:26:33.007Z,92837.81
2023-04-29T12:28:05.655Z,92833.44
2023-04-29T12:29:39.082Z,92837.38
2023-04-29T12:31:15.877Z,92839.47
2023-04-29T12:32:55.769Z,92836.88
2023-04-29T12:34:38.765Z,92835.56
2023-04-29T12:36:21.875Z,92839.75
2023-04-29T12:37:53.887Z,92837.47
2023-04-29T12:39:25.750Z,92829.00
2023-04-29T12:40:58.736Z,92839.13
2023-04-29T12:42:34.542Z,92827.94
2023-04-29T12:44:06.484Z,92832.31
2023-04-29T12:45:38.564Z,92821.53
2023-04-29T12:47:10.742Z,92827.75
2023-04-29T12:48:43.986Z,92832.16
2023-04-29T12:50:15.770Z,92828.75
2023-04-29T12:51:47.605Z,92830.13
2023-04-29T12:53:19.242Z,92828.38
2023-04-29T12:54:51.229Z,92827.13
2023-04-29T12:56:23.010Z,92835.22
2023-04-29T12:57:54.601Z,92823.97
2023-04-29T12:59:26.186Z,92827.94
2023-04-29T13:00:58.973Z,92826.09
2023-04-29T13:02:36.616Z,92826.63
2023-04-29T13:04:15.497Z,92824.53
2023-04-29T13:05:55.196Z,92825.91
2023-04-29T13:07:28.968Z,92823.34
2023-04-29T13:09:02.968Z,92830.25
2023-04-29T13:10:37.116Z,92828.44
2023-04-29T13:12:13.589Z,92830.47
2023-04-29T13:13:51.419Z,92826.53
2023-04-29T13:15:24.501Z,92825.03
2023-04-29T13:17:04.294Z,92822.66
2023-04-29T13:18:49.154Z,92819.41
2023-04-29T13:20:32.702Z,92812.41
2023-04-29T13:22:12.765Z,92816.44
2023-04-29T13:36:21.346Z,92805.78
2023-04-29T13:37:53.037Z,92809.28
2023-04-29T13:39:25.108Z,92818.06
2023-04-29T13:40:56.871Z,92811.09
2023-04-29T13:42:28.547Z,92815.38
2023-04-29T13:44:02.219Z,92809.50
2023-04-29T13:45:42.750Z,92804.50
2023-04-29T13:47:25.892Z,92803.84
2023-04-29T13:54:57.531Z,92803.03
2023-04-29T13:59:42.992Z,92798.66
2023-04-29T14:04:29.451Z,92795.50
2023-04-29T14:06:01.284Z,92794.00
2023-04-29T14:07:32.934Z,92796.28
2023-04-29T14:09:04.485Z,92795.59
2023-04-29T14:10:37.145Z,92795.69
2023-04-29T14:12:09.080Z,92798.91
2023-04-29T14:13:51.687Z,92804.09
2023-04-29T14:18:25.915Z,92787.59
2023-04-29T14:19:58.136Z,92777.78
2023-04-29T14:21:29.755Z,92777.69
2023-04-29T14:23:01.950Z,92781.78
2023-04-29T14:24:33.522Z,92777.75
2023-04-29T14:26:23.014Z,92779.00
2023-04-29T14:27:58.103Z,92775.44
2023-04-29T14:29:30.028Z,92779.28
2023-04-29T14:31:02.023Z,92778.81
2023-04-29T14:32:34.226Z,92776.38
2023-04-29T14:34:06.535Z,92775.13
2023-04-29T14:35:38.169Z,92777.00
2023-04-29T14:37:09.971Z,92775.72
2023-04-29T14:38:41.628Z,92775.38
2023-04-29T14:40:13.659Z,92773.22
2023-04-29T14:41:45.637Z,92774.72
2023-04-29T14:43:17.416Z,92772.97
2023-04-29T14:44:49.124Z,92766.59
2023-04-29T14:46:22.530Z,92768.59
2023-04-29T14:47:54.478Z,92765.34
2023-04-29T14:49:26.359Z,92758.88
2023-04-29T14:50:58.334Z,92758.28
2023-04-29T14:52:30.431Z,92756.78
2023-04-29T14:54:02.019Z,92755.03
2023-04-29T14:55:34.606Z,92755.53
2023-04-29T14:57:06.456Z,92754.75
2023-04-29T14:58:38.192Z,92758.16
2023-04-29T15:00:13.012Z,92749.66
2023-04-29T15:01:45.322Z,92743.63
2023-04-29T15:03:22.360Z,92742.91
2023-04-29T15:04:55.040Z,92748.78
2023-04-29T15:06:27.827Z,92749.75
2023-04-29T15:08:01.728Z,92743.44
2023-04-29T15:09:33.702Z,92745.81
2023-04-29T15:11:05.753Z,92744.59
2023-04-29T15:12:37.442Z,92742.91
2023-04-29T15:14:09.544Z,92739.59
2023-04-29T15:15:41.742Z,92739.59
2023-04-29T15:17:14.018Z,92737.31
2023-04-29T15:18:46.029Z,92730.78
2023-04-29T15:20:17.799Z,92735.38
2023-04-29T15:21:49.668Z,92728.53
2023-04-29T15:23:21.301Z,92736.19
2023-04-29T15:24:53.192Z,92730.94
2023-04-29T15:26:25.903Z,92730.06
2023-04-29T15:27:59.355Z,92733.56
2023-04-29T15:29:32.790Z,92727.88
2023-04-29T15:31:06.203Z,92723.13
2023-04-29T15:32:37.834Z,92732.34
2023-04-29T15:34:09.555Z,92720.97
2023-04-29T15:35:41.264Z,92725.50
2023-04-29T15:37:13.343Z,92722.78
2023-04-29T15:38:44.949Z,92730.25
2023-04-29T15:40:17.848Z,92718.25
2023-04-29T15:41:50.471Z,92731.38
2023-04-29T15:43:22.843Z,92722.28
2023-04-29T15:44:56.508Z,92722.19
2023-04-29T15:46:30.016Z,92722.09
2023-04-29T15:48:01.688Z,92726.28
2023-04-29T15:49:33.509Z,92723.56
2023-04-29T15:51:05.309Z,92722.97
2023-04-29T15:52:37.708Z,92720.25
2023-04-29T15:54:10.431Z,92723.06
2023-04-29T15:55:41.999Z,92723.69
2023-04-29T15:57:13.732Z,92722.19
2023-04-29T15:58:45.542Z,92724.72
2023-04-29T16:00:17.475Z,92724.44
2023-04-29T16:01:49.415Z,92717.78
2023-04-29T16:03:21.384Z,92722.84
2023-04-29T16:04:53.106Z,92715.88
2023-04-29T16:06:25.430Z,92719.72
2023-04-29T16:07:57.289Z,92719.97
2023-04-29T16:09:28.969Z,92723.13
2023-04-29T16:11:00.831Z,92724.78
2023-04-29T16:12:32.522Z,92733.47
2023-04-29T16:14:04.420Z,92726.09
2023-04-29T16:15:39.482Z,92718.28
2023-04-29T16:17:12.925Z,92722.16
2023-04-29T16:18:45.142Z,92719.72
2023-04-29T16:20:17.774Z,92726.28
2023-04-29T16:21:51.139Z,92722.00
2023-04-29T16:23:23.392Z,92718.50
2023-04-29T16:24:55.091Z,92723.56
2023-04-29T16:26:26.772Z,92718.94
2023-04-29T16:27:58.414Z,92714.28
2023-04-29T16:29:30.191Z,92717.00
2023-04-29T16:31:01.891Z,92719.28
2023-04-29T16:32:34.705Z,92714.53
2023-04-29T16:34:06.491Z,92706.75
2023-04-29T16:35:38.368Z,92709.81
2023-04-29T16:37:12.829Z,92715.97
2023-04-29T16:38:44.377Z,92715.09
2023-04-29T16:40:16.763Z,92720.41
2023-04-29T16:41:48.814Z,92722.28
2023-04-29T16:43:20.603Z,92725.69
2023-04-29T16:44:52.111Z,92733.75
2023-04-29T16:46:24.248Z,92728.25
2023-04-29T16:47:56.203Z,92733.22
2023-04-29T16:49:27.978Z,92725.34
2023-04-29T16:50:59.609Z,92729.53
2023-04-29T16:52:31.366Z,92732.53
2023-04-29T16:54:03.679Z,92738.19
2023-04-29T16:55:35.492Z,92739.69
2023-04-29T16:57:07.490Z,92736.88
2023-04-29T16:58:39.224Z,92736.78
2023-04-29T17:00:11.373Z,92737.13
2023-04-29T17:01:43.024Z,92735.88
2023-04-29T17:03:15.047Z,92734.22
2023-04-29T17:04:47.017Z,92737.16
2023-04-29T17:06:19.713Z,92739.72
2023-04-29T17:07:52.056Z,92740.38
2023-04-29T17:09:26.054Z,92731.63
2023-04-29T17:10:58.243Z,92738.22
2023-04-29T17:12:30.160Z,92732.06
2023-04-29T17:14:02.030Z,92736.84
2023-04-29T17:15:33.754Z,92730.09
2023-04-29T17:17:05.617Z,92741.41
2023-04-29T17:18:38.280Z,92740.94
2023-04-29T17:20:10.287Z,92741.63
2023-04-29T17:21:41.870Z,92745.00
2023-04-29T17:23:13.463Z,92751.22
2023-04-29T17:24:46.510Z,92748.63
2023-04-29T17:26:18.887Z,92744.00
2023-04-29T17:27:50.585Z,92747.94
2023-04-29T17:29:22.440Z,92747.94
2023-04-29T17:31:00.334Z,92753.72
2023-04-29T17:32:39.468Z,92753.59
2023-04-29T17:34:23.962Z,92748.78
2023-04-29T17:35:55.536Z,92746.28
2023-04-29T17:37:27.683Z,92752.84
2023-04-29T17:39:00.114Z,92752.06
2023-04-29T17:40:32.409Z,92751.28
2023-04-29T17:42:04.731Z,92743.19
2023-04-29T17:43:37.109Z,92752.91
2023-04-29T17:45:09.001Z,92747.56
2023-04-29T17:46:40.857Z,92745.91
2023-04-29T17:48:15.322Z,92748.13
2023-04-29T17:49:47.020Z,92750.25
2023-04-29T17:51:18.743Z,92747.91
2023-04-29T17:52:50.721Z,92751.63
2023-04-29T17:54:22.728Z,92747.53
2023-04-29T17:55:54.604Z,92747.78
2023-04-29T17:57:28.853Z,92753.75
2023-04-29T17:59:05.269Z,92749.81
2023-04-29T18:00:37.262Z,92759.69
2023-04-29T18:02:08.815Z,92761.16
2023-04-29T18:03:42.207Z,92750.25
2023-04-29T18:05:14.212Z,92764.88
2023-04-29T18:06:45.943Z,92767.88
2023-04-29T18:08:17.554Z,92769.97
2023-04-29T18:09:49.238Z,92762.75
2023-04-29T18:11:21.328Z,92768.59
2023-04-29T18:12:52.983Z,92763.00
2023-04-29T18:14:24.798Z,92768.41
2023-04-29T18:15:56.398Z,92768.84
2023-04-29T18:17:28.158Z,92761.78
2023-04-29T18:18:59.879Z,92773.38
2023-04-29T18:20:31.962Z,92767.28
2023-04-29T18:22:03.618Z,92760.66
2023-04-29T18:23:35.861Z,92763.03
2023-04-29T18:25:07.588Z,92764.25
2023-04-29T18:26:39.200Z,92772.81
2023-04-29T18:28:24.020Z,92776.78
2023-04-29T18:29:56.966Z,92768.66
2023-04-29T18:31:28.676Z,92768.06
2023-04-29T18:33:00.807Z,92768.44
2023-04-29T18:34:32.475Z,92782.63
2023-04-29T18:36:04.530Z,92773.25
2023-04-29T18:37:36.267Z,92781.47
2023-04-29T18:39:08.130Z,92785.50
2023-04-29T18:40:40.457Z,92781.91
2023-04-29T18:42:11.978Z,92786.34
2023-04-29T18:43:43.692Z,92789.25
2023-04-29T18:45:15.257Z,92792.31
2023-04-29T18:46:47.472Z,92791.88
2023-04-29T18:48:19.145Z,92792.19
2023-04-29T18:49:50.809Z,92796.22
2023-04-29T18:51:23.095Z,92795.78
2023-04-29T18:52:54.864Z,92801.19